Time;durP1;ratioP1;P1;durP2;ratioP2;P2;SDS_P1;SDS_P2;PMS_P1;PMS_P2;Temp;Humidity;BMP_temperature;BMP_pressure;BME280_temperature;BME280_humidity;BME280_pressure;Samples;Min_cycle;Max_cycle;Signal;HPM_P1;HPM_P2
2023/06/11 00:01:27;;;;;;;10.10;4.53;;;;;;;21.23;93.37;97658.00;4425532;32;20464;-85
2023/06/11 00:03:54;;;;;;;10.93;4.47;;;;;;;21.04;94.08;97658.84;4425624;32;20100;-85
2023/06/11 00:06:23;;;;;;;10.82;4.80;;;;;;;20.80;96.27;97659.28;4425167;32;20108;-85
2023/06/11 00:08:51;;;;;;;9.52;4.43;;;;;;;20.60;97.61;97655.00;4425396;32;20165;-85
2023/06/11 00:11:19;;;;;;;9.63;4.25;;;;;;;21.00;94.63;97663.56;4425318;32;20781;-85
2023/06/11 00:13:46;;;;;;;12.77;4.62;;;;;;;21.51;91.79;97662.38;4424880;32;20085;-85
2023/06/11 00:16:14;;;;;;;15.32;4.87;;;;;;;21.25;93.25;97663.91;4425561;32;20124;-85
2023/06/11 00:18:42;;;;;;;9.45;4.47;;;;;;;20.82;97.00;97667.00;4425288;32;20110;-85
2023/06/11 00:21:10;;;;;;;9.68;4.18;;;;;;;21.16;94.35;97656.88;4425094;32;20098;-85
2023/06/11 00:23:37;;;;;;;12.32;4.35;;;;;;;20.47;98.08;97657.91;4425415;32;20085;-85
2023/06/11 00:26:06;;;;;;;9.80;4.22;;;;;;;20.99;94.85;97654.03;4425445;32;20425;-85
2023/06/11 00:28:33;;;;;;;13.27;4.40;;;;;;;20.44;98.59;97659.00;4424806;32;20119;-85
2023/06/11 00:31:01;;;;;;;10.10;4.60;;;;;;;20.28;99.12;97649.97;4425309;32;20114;-85
2023/06/11 00:33:28;;;;;;;9.30;4.25;;;;;;;20.18;99.92;97656.03;4425271;32;20160;-84
2023/06/11 00:35:55;;;;;;;13.02;4.25;;;;;;;19.86;100.00;97645.75;4424969;32;20135;-85
2023/06/11 00:38:22;;;;;;;8.63;3.60;;;;;;;20.49;98.97;97653.34;4425214;32;20102;-84
2023/06/11 00:40:49;;;;;;;13.25;4.72;;;;;;;20.17;99.21;97651.75;4424881;32;20141;-86
2023/06/11 00:43:21;;;;;;;10.77;4.37;;;;;;;20.35;98.60;97654.56;4425397;32;20168;-85
2023/06/11 00:45:51;;;;;;;11.43;4.37;;;;;;;20.63;97.56;97646.87;4425288;32;20103;-85
2023/06/11 00:48:22;;;;;;;9.30;4.35;;;;;;;20.64;96.62;97659.03;4424921;32;20496;-85
2023/06/11 00:50:50;;;;;;;11.35;4.60;;;;;;;20.51;97.25;97661.91;4425110;32;20141;-85
2023/06/11 00:53:19;;;;;;;10.55;4.60;;;;;;;20.96;93.46;97658.75;4425258;32;20157;-85
2023/06/11 00:55:46;;;;;;;11.25;4.60;;;;;;;20.91;93.52;97661.75;4424882;32;20168;-86
2023/06/11 00:58:14;;;;;;;10.57;4.25;;;;;;;21.51;90.73;97657.12;4424955;32;20113;-85
2023/06/11 01:00:43;;;;;;;12.20;4.45;;;;;;;21.03;93.67;97657.19;4411373;32;20117;-85
2023/06/11 01:03:17;;;;;;;10.70;5.00;;;;;;;20.65;95.39;97656.28;4424759;32;20093;-86
2023/06/11 01:06:07;;;;;;;9.13;4.62;;;;;;;20.58;96.52;97660.41;4425202;32;20078;-85
2023/06/11 01:08:38;;;;;;;9.93;4.18;;;;;;;20.58;97.23;97659.56;4411360;32;20128;-85
2023/06/11 01:11:21;;;;;;;10.93;4.47;;;;;;;20.79;96.08;97650.59;4410838;32;20202;-85
2023/06/11 01:13:49;;;;;;;11.10;4.72;;;;;;;20.66;96.35;97655.31;4425090;32;20149;-85
2023/06/11 01:16:24;;;;;;;11.05;5.05;;;;;;;20.98;94.99;97660.25;4424577;32;20086;-86
2023/06/11 01:19:03;;;;;;;10.98;5.07;;;;;;;21.11;93.89;97661.75;4411228;32;20093;-85
2023/06/11 01:21:41;;;;;;;10.30;4.93;;;;;;;20.31;99.49;97666.28;4411533;32;20228;-85
2023/06/11 01:24:28;;;;;;;10.75;4.85;;;;;;;20.74;97.63;97665.09;4410234;32;20108;-86
2023/06/11 01:27:24;;;;;;;11.82;5.82;;;;;;;20.46;98.19;97662.31;4425050;32;20069;-85
2023/06/11 01:29:52;;;;;;;12.68;5.15;;;;;;;20.80;97.50;97661.91;4422966;32;20162;-86
2023/06/11 01:32:23;;;;;;;13.57;5.87;;;;;;;21.28;94.54;97667.13;4424709;32;20122;-85
2023/06/11 01:34:51;;;;;;;9.68;5.03;;;;;;;20.34;98.96;97665.19;4411331;32;20165;-85
2023/06/11 01:37:18;;;;;;;11.52;6.10;;;;;;;20.68;98.61;97666.47;4410560;32;20150;-86
2023/06/11 01:39:45;;;;;;;13.30;5.55;;;;;;;20.68;99.58;97663.03;4424426;32;20142;-85
2023/06/11 01:42:12;;;;;;;13.88;6.00;;;;;;;20.48;100.00;97657.75;4424748;32;20149;-85
2023/06/11 01:44:39;;;;;;;13.62;6.03;;;;;;;20.33;100.00;97660.91;4424307;32;20141;-86
2023/06/11 01:47:06;;;;;;;11.27;6.37;;;;;;;20.35;100.00;97658.97;4424532;32;20077;-85
2023/06/11 01:49:33;;;;;;;11.93;6.32;;;;;;;20.00;100.00;97668.13;4424401;32;20089;-85
2023/06/11 01:52:00;;;;;;;13.80;6.40;;;;;;;20.57;100.00;97658.75;4424151;32;20189;-85
2023/06/11 01:54:27;;;;;;;13.75;6.57;;;;;;;20.54;100.00;97659.03;4424464;32;20161;-85
2023/06/11 01:56:54;;;;;;;11.80;5.68;;;;;;;20.36;100.00;97673.72;4424486;32;20077;-85
2023/06/11 01:59:21;;;;;;;12.32;5.85;;;;;;;20.60;100.00;97665.50;4423870;32;20102;-85
2023/06/11 02:01:53;;;;;;;11.85;5.95;;;;;;;21.03;96.81;97662.44;4424341;32;20456;-85
2023/06/11 02:04:20;;;;;;;13.13;6.68;;;;;;;20.62;99.49;97663.56;4424443;32;20124;-85
2023/06/11 02:06:48;;;;;;;12.73;6.37;;;;;;;20.43;100.00;97675.72;4423988;32;20082;-85
2023/06/11 02:09:15;;;;;;;14.23;6.62;;;;;;;20.37;100.00;97673.59;4424042;32;20093;-85
2023/06/11 02:11:42;;;;;;;13.75;6.10;;;;;;;20.57;100.00;97673.66;4424271;32;20145;-85
2023/06/11 02:14:09;;;;;;;14.10;7.15;;;;;;;19.87;100.00;97678.00;4423965;32;20609;-85
2023/06/11 02:16:36;;;;;;;15.80;6.87;;;;;;;20.15;100.00;97679.88;4424221;32;20381;-85
2023/06/11 02:19:03;;;;;;;13.27;6.70;;;;;;;20.57;100.00;97676.25;4423778;32;20148;-86
2023/06/11 02:21:30;;;;;;;14.40;7.18;;;;;;;20.83;99.21;97668.66;4424226;32;20136;-85
2023/06/11 02:23:57;;;;;;;16.73;7.10;;;;;;;20.38;100.00;97675.22;4424058;32;20594;-85
2023/06/11 02:26:24;;;;;;;14.07;6.53;;;;;;;20.46;100.00;97667.56;4423720;32;20172;-86
2023/06/11 02:28:52;;;;;;;13.13;6.70;;;;;;;20.80;98.40;97672.41;4423855;32;20159;-85
2023/06/11 02:31:19;;;;;;;14.13;7.45;;;;;;;20.21;100.00;97689.84;4423980;32;20120;-85
2023/06/11 02:33:46;;;;;;;14.73;7.87;;;;;;;20.17;100.00;97680.56;4423518;32;20106;-86
2023/06/11 02:36:13;;;;;;;14.68;7.95;;;;;;;20.76;98.84;97677.09;4425236;32;20141;-85
2023/06/11 02:38:39;;;;;;;17.52;7.68;;;;;;;20.62;99.41;97677.50;4425970;32;20098;-85
2023/06/11 02:41:06;;;;;;;14.63;7.82;;;;;;;20.62;100.00;97674.88;4425706;32;20119;-85
2023/06/11 02:43:33;;;;;;;16.42;7.25;;;;;;;21.29;96.12;97679.28;4426309;32;20125;-85
2023/06/11 02:46:00;;;;;;;15.40;8.13;;;;;;;21.59;92.90;97682.66;4426154;32;20104;-85
2023/06/11 02:48:27;;;;;;;14.87;8.02;;;;;;;21.11;96.41;97680.09;4425721;32;20094;-85
2023/06/11 02:50:55;;;;;;;15.57;8.45;;;;;;;21.43;94.34;97682.44;4426015;32;20127;-85
2023/06/11 02:53:21;;;;;;;17.30;8.70;;;;;;;21.25;95.07;97688.34;4426044;32;20172;-85
2023/06/11 02:55:48;;;;;;;14.32;7.75;;;;;;;21.65;92.88;97689.94;4425736;32;20093;-86
2023/06/11 02:58:15;;;;;;;15.65;7.97;;;;;;;21.54;92.77;97685.72;4425834;32;20416;-85
2023/06/11 03:00:42;;;;;;;15.50;8.18;;;;;;;21.52;93.25;97687.66;4426052;32;20102;-85
2023/06/11 03:03:09;;;;;;;18.35;8.25;;;;;;;22.03;90.05;97688.16;4425702;32;20471;-86
2023/06/11 03:05:37;;;;;;;14.05;7.55;;;;;;;22.53;86.09;97696.44;4425944;32;20674;-85
2023/06/11 03:08:04;;;;;;;12.98;7.55;;;;;;;22.85;84.76;97692.50;4425974;32;20098;-85
2023/06/11 03:10:31;;;;;;;14.10;8.32;;;;;;;23.03;83.02;97698.59;4425670;32;20090;-85
2023/06/11 03:12:58;;;;;;;14.57;7.97;;;;;;;22.70;83.57;97700.06;4425788;32;20094;-86
2023/06/11 03:15:24;;;;;;;13.75;7.32;;;;;;;22.62;84.47;97695.56;4425634;32;20094;-86
2023/06/11 03:17:51;;;;;;;15.68;7.90;;;;;;;22.17;87.05;97701.66;4426046;32;20161;-85
2023/06/11 03:20:18;;;;;;;17.50;7.97;;;;;;;22.16;87.27;97697.38;4425820;32;20536;-85
2023/06/11 03:22:45;;;;;;;13.38;7.37;;;;;;;22.79;82.59;97702.62;4425722;32;20094;-86
2023/06/11 03:25:12;;;;;;;14.02;7.70;;;;;;;22.00;86.68;97704.19;4425996;32;20107;-85
2023/06/11 03:27:39;;;;;;;15.07;8.63;;;;;;;21.86;88.91;97701.06;4426093;32;20112;-85
2023/06/11 03:30:07;;;;;;;17.35;8.40;;;;;;;22.29;86.83;97702.28;4425570;32;20149;-86
2023/06/11 03:32:34;;;;;;;14.25;8.30;;;;;;;21.15;93.77;97702.47;4425944;32;20090;-85
2023/06/11 03:35:01;;;;;;;16.35;7.32;;;;;;;21.40;92.35;97701.09;4425954;32;20148;-85
2023/06/11 03:37:28;;;;;;;14.38;7.68;;;;;;;20.84;96.02;97702.62;4425444;32;20149;-86
2023/06/11 03:39:55;;;;;;;14.65;7.87;;;;;;;20.26;100.00;97706.94;4425759;32;20444;-85
2023/06/11 03:42:22;;;;;;;12.98;7.65;;;;;;;20.10;100.00;97715.31;4425672;32;20108;-85
2023/06/11 03:44:49;;;;;;;13.88;7.28;;;;;;;20.32;100.00;97709.03;4425436;32;20085;-86
2023/06/11 03:47:16;;;;;;;15.80;7.57;;;;;;;20.33;100.00;97703.66;4425353;32;20468;-85
2023/06/11 03:49:44;;;;;;;15.68;8.10;;;;;;;20.78;99.68;97700.56;4425681;32;20146;-85
2023/06/11 03:52:11;;;;;;;13.80;7.40;;;;;;;20.72;100.00;97709.78;4425330;32;20200;-86
2023/06/11 03:54:38;;;;;;;12.88;7.62;;;;;;;20.69;99.99;97709.25;4425695;32;20112;-85
2023/06/11 03:57:06;;;;;;;17.08;8.40;;;;;;;20.49;100.00;97706.59;4425766;32;20109;-85
2023/06/11 03:59:33;;;;;;;14.25;7.40;;;;;;;21.37;96.20;97704.81;4425252;32;20090;-85
2023/06/11 04:02:00;;;;;;;14.77;8.07;;;;;;;21.31;97.73;97708.00;4425653;32;20105;-85
2023/06/11 04:04:27;;;;;;;13.70;7.40;;;;;;;20.74;100.00;97707.06;4425331;32;20085;-86
2023/06/11 04:06:54;;;;;;;14.50;7.80;;;;;;;20.90;100.00;97715.19;4425594;32;20114;-85
2023/06/11 04:09:23;;;;;;;13.80;7.50;;;;;;;20.56;100.00;97708.69;4425379;32;20148;-85
2023/06/11 04:11:50;;;;;;;14.82;7.75;;;;;;;20.51;100.00;97714.31;4425267;32;20473;-86
2023/06/11 04:14:17;;;;;;;17.10;7.90;;;;;;;20.83;100.00;97711.44;4425523;32;20177;-85
2023/06/11 04:16:43;;;;;;;16.55;8.48;;;;;;;20.99;99.37;97714.34;4425433;32;20146;-85
2023/06/11 04:19:10;;;;;;;17.15;8.93;;;;;;;20.39;100.00;97713.56;4425092;32;20456;-85
2023/06/11 04:21:37;;;;;;;13.65;7.75;;;;;;;20.00;100.00;97717.91;4425507;32;20160;-85
2023/06/11 04:24:04;;;;;;;15.85;8.25;;;;;;;21.33;98.91;97712.13;4425547;32;20152;-85
2023/06/11 04:26:36;;;;;;;14.40;7.78;;;;;;;21.07;100.00;97711.03;4425224;32;20132;-86
2023/06/11 04:29:03;;;;;;;14.23;8.05;;;;;;;21.13;99.29;97718.34;4425411;32;20098;-85
2023/06/11 04:31:30;;;;;;;18.65;8.05;;;;;;;20.94;100.00;97718.34;4425346;32;20104;-85
2023/06/11 04:34:02;;;;;;;14.23;8.20;;;;;;;21.08;99.65;97725.81;4425016;32;20085;-85
2023/06/11 04:36:29;;;;;;;15.68;8.30;;;;;;;21.16;98.51;97722.47;4425509;32;20117;-85
2023/06/11 04:39:02;;;;;;;15.10;8.18;;;;;;;20.69;100.00;97727.59;4425198;32;20149;-85
2023/06/11 04:41:29;;;;;;;15.07;8.52;;;;;;;20.61;100.00;97723.03;4424932;32;20094;-86
2023/06/11 04:43:56;;;;;;;18.98;8.27;;;;;;;20.81;100.00;97726.50;4425217;32;20530;-85
2023/06/11 04:46:23;;;;;;;15.88;9.40;;;;;;;20.98;100.00;97731.06;4424931;32;20497;-86
2023/06/11 04:48:50;;;;;;;16.08;8.52;;;;;;;20.86;100.00;97720.84;4425241;32;20167;-85
2023/06/11 04:51:17;;;;;;;14.32;7.97;;;;;;;21.23;98.51;97728.84;4425214;32;20104;-85
2023/06/11 04:53:45;;;;;;;14.87;8.48;;;;;;;21.35;97.36;97733.81;4424975;32;20145;-86
2023/06/11 04:56:12;;;;;;;17.15;8.77;;;;;;;21.87;94.99;97726.34;4425212;32;20106;-85
2023/06/11 04:58:39;;;;;;;15.32;8.23;;;;;;;21.93;95.23;97724.97;4423951;32;20109;-85
2023/06/11 05:01:07;;;;;;;17.87;8.88;;;;;;;21.66;95.58;97731.81;4424986;32;20469;-86
2023/06/11 05:03:37;;;;;;;16.15;8.68;;;;;;;21.42;96.92;97723.59;4425324;32;20077;-85
2023/06/11 05:06:04;;;;;;;18.35;8.05;;;;;;;21.95;93.82;97729.09;4425358;32;20416;-85
2023/06/11 05:08:32;;;;;;;17.05;8.05;;;;;;;21.90;94.49;97726.09;4424844;32;20117;-85
2023/06/11 05:10:59;;;;;;;14.00;8.20;;;;;;;21.85;93.74;97730.09;4424856;32;20104;-85
2023/06/11 05:13:26;;;;;;;15.00;8.00;;;;;;;22.87;86.79;97728.22;4425032;32;20073;-85
2023/06/11 05:15:55;;;;;;;14.98;7.80;;;;;;;22.27;89.81;97737.56;4424748;32;20165;-86
2023/06/11 05:18:24;;;;;;;16.90;7.75;;;;;;;21.59;94.42;97733.38;4424931;32;20089;-85
2023/06/11 05:20:51;;;;;;;16.12;8.32;;;;;;;21.69;91.56;97735.13;4425057;32;20099;-85
2023/06/11 05:23:18;;;;;;;16.37;7.90;;;;;;;21.29;95.70;97734.38;4424598;32;20089;-86
2023/06/11 05:25:50;;;;;;;13.40;7.85;;;;;;;21.42;95.75;97730.63;4425013;32;20132;-85
2023/06/11 05:28:17;;;;;;;16.67;7.97;;;;;;;21.45;94.57;97735.59;4425046;32;20098;-85
2023/06/11 05:30:47;;;;;;;13.80;7.32;;;;;;;21.06;96.84;97739.06;4424715;32;20202;-86
2023/06/11 05:33:14;;;;;;;13.55;7.45;;;;;;;21.52;93.47;97747.19;4425287;32;20098;-85
2023/06/11 05:35:43;;;;;;;13.25;6.97;;;;;;;21.39;93.31;97747.50;4424874;32;20440;-86
2023/06/11 05:38:10;;;;;;;14.43;7.93;;;;;;;20.83;97.12;97745.53;4425009;32;20151;-85
2023/06/11 05:40:37;;;;;;;15.68;7.55;;;;;;;20.84;97.61;97751.59;4424924;32;20102;-85
2023/06/11 05:43:05;;;;;;;13.95;7.82;;;;;;;21.20;96.46;97745.69;4424561;32;20176;-86
2023/06/11 05:45:33;;;;;;;13.80;7.60;;;;;;;21.20;96.38;97745.69;4424947;32;20089;-85
2023/06/11 05:48:00;;;;;;;12.95;6.82;;;;;;;21.16;94.63;97744.31;4424867;32;20120;-85
2023/06/11 05:50:28;;;;;;;12.10;6.72;;;;;;;21.15;95.72;97753.13;4424319;32;20094;-86
2023/06/11 05:52:55;;;;;;;15.93;7.12;;;;;;;20.91;97.82;97757.97;4424662;32;20128;-85
2023/06/11 05:55:22;;;;;;;12.68;7.35;;;;;;;21.33;93.74;97755.91;4424929;32;20094;-85
2023/06/11 05:57:49;;;;;;;13.48;7.28;;;;;;;21.69;93.56;97756.12;4424302;32;20123;-86
2023/06/11 06:00:16;;;;;;;14.15;7.47;;;;;;;21.18;96.66;97750.25;4424484;32;20120;-85
2023/06/11 06:02:43;;;;;;;14.57;7.85;;;;;;;21.46;93.92;97753.81;4424747;32;20086;-85
2023/06/11 06:05:10;;;;;;;13.32;7.47;;;;;;;20.96;96.39;97753.97;4424115;32;20105;-86
2023/06/11 06:07:37;;;;;;;12.70;6.62;;;;;;;21.35;93.87;97759.22;4424679;32;20159;-85
2023/06/11 06:10:05;;;;;;;15.20;6.82;;;;;;;22.09;89.09;97767.22;4424446;32;20103;-85
2023/06/11 06:12:32;;;;;;;13.75;7.50;;;;;;;21.50;92.61;97765.72;4426190;32;20097;-86
2023/06/11 06:14:58;;;;;;;13.52;7.53;;;;;;;21.50;94.05;97772.75;4426506;32;20475;-85
2023/06/11 06:17:25;;;;;;;13.10;6.65;;;;;;;21.67;92.11;97767.59;4426655;32;20097;-85
2023/06/11 06:19:52;;;;;;;11.60;5.68;;;;;;;21.74;89.85;97774.91;4425968;32;20081;-85
2023/06/11 06:22:19;;;;;;;12.68;7.22;;;;;;;21.99;85.94;97766.41;4426468;32;20395;-85
2023/06/11 06:24:46;;;;;;;13.15;6.87;;;;;;;21.32;91.76;97777.88;4426157;32;20428;-86
2023/06/11 06:27:13;;;;;;;14.65;7.00;;;;;;;21.74;90.27;97774.91;4426504;32;20108;-85
2023/06/11 06:29:40;;;;;;;13.10;7.10;;;;;;;21.88;90.37;97782.34;4426247;32;20097;-85
2023/06/11 06:32:08;;;;;;;12.50;6.22;;;;;;;21.78;90.72;97771.03;4425971;32;20478;-86
2023/06/11 06:34:35;;;;;;;13.62;6.72;;;;;;;22.17;85.22;97774.41;4426267;32;20094;-85
2023/06/11 06:37:02;;;;;;;16.58;8.00;;;;;;;22.13;86.49;97779.12;4426296;32;20137;-85
2023/06/11 06:39:29;;;;;;;13.02;6.60;;;;;;;21.43;91.41;97779.53;4425808;32;20090;-86
2023/06/11 06:41:56;;;;;;;12.23;6.22;;;;;;;21.77;89.64;97780.72;4426288;32;20143;-85
2023/06/11 06:44:23;;;;;;;11.10;5.50;;;;;;;22.05;85.16;97778.97;4426257;32;20155;-85
2023/06/11 06:46:53;;;;;;;14.18;5.72;;;;;;;21.98;85.41;97779.69;4426057;32;20154;-86
2023/06/11 06:49:21;;;;;;;11.52;6.30;;;;;;;21.33;87.19;97784.78;4412727;32;20148;-85
2023/06/11 06:51:47;;;;;;;14.40;7.37;;;;;;;21.26;90.18;97781.06;4426239;32;20455;-85
2023/06/11 06:54:16;;;;;;;11.80;6.15;;;;;;;21.22;92.89;97782.28;4425920;32;20173;-86
2023/06/11 06:56:43;;;;;;;10.13;5.47;;;;;;;21.09;89.33;97788.63;4426177;32;20102;-85
2023/06/11 06:59:10;;;;;;;12.20;5.53;;;;;;;21.49;86.85;97784.22;4425916;32;20164;-85
2023/06/11 07:01:37;;;;;;;11.48;5.87;;;;;;;21.70;85.67;97782.25;4425750;32;20077;-86
2023/06/11 07:04:04;;;;;;;11.48;6.25;;;;;;;21.36;88.02;97781.88;4426047;32;20170;-85
2023/06/11 07:06:32;;;;;;;12.68;7.28;;;;;;;21.66;89.39;97792.19;4426095;32;20102;-85
2023/06/11 07:08:59;;;;;;;12.55;6.80;;;;;;;21.90;86.72;97790.91;4425662;32;20089;-85
2023/06/11 07:11:26;;;;;;;12.50;6.57;;;;;;;21.93;86.98;97798.50;4425674;32;20427;-85
2023/06/11 07:13:53;;;;;;;11.15;6.40;;;;;;;22.41;85.89;97798.34;4425702;32;20162;-86
2023/06/11 07:16:20;;;;;;;13.18;6.05;;;;;;;22.39;84.05;97802.94;4425959;32;20090;-85
2023/06/11 07:18:47;;;;;;;13.95;6.18;;;;;;;21.97;85.09;97801.66;4425904;32;20147;-85
2023/06/11 07:21:14;;;;;;;11.82;5.28;;;;;;;22.53;81.89;97801.59;4425379;32;20081;-86
2023/06/11 07:23:41;;;;;;;12.10;6.22;;;;;;;22.57;79.73;97803.00;4425491;32;20103;-86
2023/06/11 07:26:10;;;;;;;10.80;5.93;;;;;;;23.16;77.35;97799.00;4425960;32;20120;-86
2023/06/11 07:28:37;;;;;;;11.95;6.18;;;;;;;23.64;73.14;97801.28;4425424;32;20162;-85
2023/06/11 07:31:03;;;;;;;9.88;5.22;;;;;;;22.88;78.49;97798.28;4411805;32;20160;-86
2023/06/11 07:33:31;;;;;;;11.60;5.78;;;;;;;23.48;71.48;97795.00;4425866;32;20102;-86
2023/06/11 07:35:59;;;;;;;11.45;5.00;;;;;;;23.60;71.15;97793.81;4425539;32;20117;-86
2023/06/11 07:38:26;;;;;;;11.35;4.68;;;;;;;23.25;70.80;97795.47;4425674;32;20112;-85
2023/06/11 07:40:53;;;;;;;11.02;5.35;;;;;;;23.22;69.57;97800.22;4425632;32;20082;-86
2023/06/11 07:43:20;;;;;;;12.02;5.25;;;;;;;23.09;73.28;97801.44;4425419;32;20453;-86
2023/06/11 07:45:47;;;;;;;11.63;5.53;;;;;;;23.63;70.17;97801.44;4425697;32;20153;-86
2023/06/11 07:48:14;;;;;;;11.35;5.55;;;;;;;24.07;69.59;97802.22;4425747;32;20098;-86
2023/06/11 07:50:41;;;;;;;9.30;4.82;;;;;;;23.97;68.58;97798.03;4425112;32;20094;-86
2023/06/11 07:53:08;;;;;;;11.27;5.65;;;;;;;24.13;66.49;97803.38;4425590;32;20098;-86
2023/06/11 07:55:35;;;;;;;9.45;4.20;;;;;;;24.69;66.54;97804.66;4425646;32;20412;-86
2023/06/11 07:58:02;;;;;;;9.35;4.65;;;;;;;24.38;65.39;97802.56;4425383;32;20148;-86
2023/06/11 08:00:29;;;;;;;9.00;5.03;;;;;;;24.16;64.62;97811.00;4425455;32;20097;-86
2023/06/11 08:02:56;;;;;;;14.05;5.18;;;;;;;23.40;65.94;97813.41;4425418;32;20161;-86
2023/06/11 08:05:23;;;;;;;10.63;5.20;;;;;;;24.00;64.62;97811.72;4425644;32;20520;-86
2023/06/11 08:07:50;;;;;;;9.43;4.70;;;;;;;24.28;60.87;97822.91;4425668;32;20085;-86
2023/06/11 08:10:17;;;;;;;10.70;5.40;;;;;;;24.60;59.06;97819.63;4424976;32;20113;-87
2023/06/11 08:12:44;;;;;;;10.07;4.95;;;;;;;25.16;58.82;97822.59;4425418;32;20093;-86
2023/06/11 08:15:11;;;;;;;9.57;5.00;;;;;;;25.11;60.51;97820.47;4425610;32;20164;-86
2023/06/11 08:17:38;;;;;;;11.00;4.85;;;;;;;25.35;61.02;97830.22;4425228;32;20089;-86
2023/06/11 08:20:07;;;;;;;9.90;4.57;;;;;;;25.15;60.05;97818.31;4425272;32;20120;-86
2023/06/11 08:22:35;;;;;;;11.75;5.30;;;;;;;24.07;63.82;97815.38;4425794;32;20101;-86
2023/06/11 08:25:02;;;;;;;13.05;5.60;;;;;;;23.87;66.60;97822.66;4425223;32;20098;-86
2023/06/11 08:27:29;;;;;;;10.02;5.50;;;;;;;23.50;67.97;97822.88;4425517;32;20468;-86
2023/06/11 08:29:55;;;;;;;12.50;5.70;;;;;;;23.31;68.12;97821.22;4425417;32;20077;-85
2023/06/11 08:32:23;;;;;;;10.10;4.55;;;;;;;23.47;68.13;97814.41;4425079;32;20102;-86
2023/06/11 08:34:50;;;;;;;12.05;6.15;;;;;;;23.12;72.09;97821.34;4425198;32;20104;-85
2023/06/11 08:37:17;;;;;;;9.40;5.57;;;;;;;22.80;71.69;97816.56;4425450;32;20145;-85
2023/06/11 08:39:44;;;;;;;10.60;5.43;;;;;;;23.45;71.91;97816.38;4424937;32;20078;-85
2023/06/11 08:42:12;;;;;;;11.82;5.97;;;;;;;23.08;70.19;97822.66;4425353;32;20120;-85
2023/06/11 08:44:39;;;;;;;10.43;5.10;;;;;;;23.30;73.85;97816.09;4425391;32;20117;-86
2023/06/11 08:47:06;;;;;;;10.40;5.57;;;;;;;22.95;72.98;97815.09;4425046;32;20090;-86
2023/06/11 08:49:34;;;;;;;10.02;5.35;;;;;;;23.38;70.49;97819.63;4425170;32;20488;-86
2023/06/11 08:52:04;;;;;;;11.63;5.60;;;;;;;23.90;69.84;97816.25;4411533;32;20454;-86
2023/06/11 08:54:32;;;;;;;10.25;5.28;;;;;;;23.92;65.84;97819.56;4425157;32;20108;-86
2023/06/11 08:56:59;;;;;;;10.93;5.30;;;;;;;24.34;65.56;97817.03;4425215;32;20105;-86
2023/06/11 08:59:26;;;;;;;10.38;5.47;;;;;;;24.81;64.23;97820.03;4424739;32;20427;-86
2023/06/11 09:01:53;;;;;;;11.90;5.20;;;;;;;24.31;65.29;97821.81;4425107;32;20097;-86
2023/06/11 09:04:23;;;;;;;9.48;5.35;;;;;;;24.06;63.50;97819.00;4425213;32;20102;-86
2023/06/11 09:06:58;;;;;;;9.70;5.57;;;;;;;24.00;63.68;97824.06;4424933;32;20389;-86
2023/06/11 09:09:25;;;;;;;11.05;4.90;;;;;;;24.23;63.20;97820.72;4424903;32;20086;-86
2023/06/11 09:11:52;;;;;;;11.57;6.00;;;;;;;23.82;65.23;97814.41;4425037;32;20133;-86
2023/06/11 09:14:20;;;;;;;12.23;5.40;;;;;;;23.77;66.45;97819.31;4424750;32;20160;-86
2023/06/11 09:16:48;;;;;;;10.45;5.57;;;;;;;23.46;65.55;97816.22;4425225;32;20135;-86
2023/06/11 09:19:16;;;;;;;12.10;5.60;;;;;;;24.14;67.29;97819.06;4425070;32;20100;-86
2023/06/11 09:21:51;;;;;;;10.35;5.93;;;;;;;24.36;67.13;97819.53;4424858;32;20117;-86
2023/06/11 09:24:21;;;;;;;11.93;6.25;;;;;;;24.87;65.90;97815.91;4425062;32;20471;-85
2023/06/11 09:26:53;;;;;;;10.25;5.10;;;;;;;24.94;64.18;97816.91;4425103;32;20152;-86
2023/06/11 09:29:21;;;;;;;10.82;6.25;;;;;;;23.79;67.70;97811.25;4424565;32;20096;-85
2023/06/11 09:31:50;;;;;;;10.27;5.35;;;;;;;23.66;68.79;97815.09;4424839;32;20445;-85
2023/06/11 09:34:22;;;;;;;12.20;6.35;;;;;;;23.40;67.23;97808.13;4410701;32;20419;-86
2023/06/11 09:36:49;;;;;;;11.05;5.70;;;;;;;23.89;66.91;97810.16;4424880;32;20086;-86
2023/06/11 09:39:16;;;;;;;10.88;5.53;;;;;;;24.35;65.61;97818.72;4424802;32;20481;-86
2023/06/11 09:41:47;;;;;;;13.05;6.75;;;;;;;23.83;63.75;97812.59;4424305;32;20158;-86
2023/06/11 09:44:19;;;;;;;11.98;5.20;;;;;;;23.77;68.56;97811.41;4425158;32;20124;-84
2023/06/11 09:46:49;;;;;;;11.65;5.93;;;;;;;23.77;66.50;97815.84;4430691;32;20102;-85
2023/06/11 09:49:16;;;;;;;10.60;6.50;;;;;;;24.82;62.03;97823.50;4428870;32;20136;-85
2023/06/11 09:51:43;;;;;;;12.13;6.28;;;;;;;24.71;63.14;97819.34;4428593;32;20105;-85
2023/06/11 09:54:12;;;;;;;12.18;5.97;;;;;;;24.95;63.33;97820.38;4429712;32;20102;-85
2023/06/11 09:56:42;;;;;;;9.98;5.47;;;;;;;25.00;64.32;97820.75;4429053;32;20070;-85
2023/06/11 09:59:11;;;;;;;12.37;5.62;;;;;;;24.18;64.01;97815.13;4430033;32;20439;-85
2023/06/11 10:01:41;;;;;;;11.68;6.00;;;;;;;24.14;67.11;97820.87;4430023;32;20105;-85
2023/06/11 10:04:08;;;;;;;11.98;6.20;;;;;;;23.87;68.29;97812.13;4429147;32;20173;-85
2023/06/11 10:06:41;;;;;;;13.18;5.62;;;;;;;24.66;65.07;97802.31;4429413;32;20455;-85
2023/06/11 10:09:11;;;;;;;12.80;6.00;;;;;;;24.96;63.63;97814.94;4415284;32;20077;-85
2023/06/11 10:11:40;;;;;;;10.13;5.05;;;;;;;25.21;63.11;97812.41;4400937;32;20102;-85
2023/06/11 10:14:15;;;;;;;8.57;4.43;;;;;;;24.87;63.60;97812.44;4401597;32;20114;-84
2023/06/11 10:16:54;;;;;;;10.57;5.18;;;;;;;24.28;63.66;97811.53;4414396;32;20437;-85
2023/06/11 10:19:21;;;;;;;10.82;5.55;;;;;;;24.10;63.74;97812.44;4414545;32;20081;-84
2023/06/11 10:21:52;;;;;;;9.95;5.50;;;;;;;23.89;65.55;97818.06;4414718;32;20109;-84
2023/06/11 10:24:26;;;;;;;12.55;5.22;;;;;;;23.83;62.03;97828.41;4414261;32;20475;-84
2023/06/11 10:27:13;;;;;;;9.18;4.53;;;;;;;24.22;60.32;97827.00;4414967;32;20086;-84
2023/06/11 10:29:47;;;;;;;;;;;;;;;23.64;62.50;97819.72;4415880;32;20062;-84
2023/06/11 10:32:21;;;;;;;11.95;5.35;;;;;;;23.21;64.46;97828.34;4413873;32;20021;-84
2023/06/11 10:34:57;;;;;;;13.50;5.72;;;;;;;24.36;62.97;97830.09;4413906;32;20089;-85
2023/06/11 10:37:36;;;;;;;10.32;5.28;;;;;;;24.69;62.23;97823.94;4413470;32;20502;-85
2023/06/11 10:40:08;;;;;;;10.60;5.65;;;;;;;25.21;61.40;97826.44;4413718;32;20331;-85
2023/06/11 10:42:37;;;;;;;10.52;5.40;;;;;;;25.53;60.74;97827.44;4413950;32;20118;-85
2023/06/11 10:45:11;;;;;;;13.27;5.50;;;;;;;25.23;65.62;97834.19;4413700;32;20492;-85
2023/06/11 10:47:51;;;;;;;10.43;5.60;;;;;;;25.02;67.14;97829.34;4413812;32;20116;-85
2023/06/11 10:50:30;;;;;;;10.13;5.22;;;;;;;25.35;67.83;97836.34;4400541;32;20145;-85
2023/06/11 10:53:06;;;;;;;12.40;5.78;;;;;;;25.79;67.46;97829.94;4400454;32;20110;-85
2023/06/11 10:55:34;;;;;;;11.68;5.82;;;;;;;26.01;63.52;97816.00;4413742;32;20112;-85
2023/06/11 10:58:02;;;;;;;12.50;6.30;;;;;;;25.50;64.60;97819.81;4410902;32;20436;-85
2023/06/11 11:00:32;;;;;;;11.30;6.20;;;;;;;25.73;64.61;97812.09;4410298;32;20082;-85
2023/06/11 11:03:03;;;;;;;9.80;5.43;;;;;;;26.07;63.94;97814.53;4410793;32;20169;-85
2023/06/11 11:05:31;;;;;;;10.25;6.00;;;;;;;26.06;65.52;97812.87;4410446;32;20188;-85
2023/06/11 11:08:01;;;;;;;12.85;6.20;;;;;;;25.70;65.76;97820.34;4410720;32;20452;-85
2023/06/11 11:10:28;;;;;;;12.98;6.60;;;;;;;26.12;63.79;97820.94;4418682;32;20455;-85
2023/06/11 11:12:55;;;;;;;10.35;5.65;;;;;;;26.18;62.83;97824.75;4425636;32;20102;-85
2023/06/11 11:15:22;;;;;;;12.00;5.90;;;;;;;25.68;65.46;97818.66;4412195;32;20106;-85
2023/06/11 11:17:50;;;;;;;12.13;6.85;;;;;;;25.90;64.35;97826.94;4426381;32;20111;-85
2023/06/11 11:20:19;;;;;;;11.68;5.55;;;;;;;25.71;63.57;97820.19;4425733;32;20085;-85
2023/06/11 11:22:54;;;;;;;10.85;5.70;;;;;;;25.72;64.95;97819.19;4426043;32;20471;-85
2023/06/11 11:25:29;;;;;;;10.75;6.05;;;;;;;25.38;65.87;97814.03;4426022;32;20221;-85
2023/06/11 11:27:57;;;;;;;10.65;6.12;;;;;;;25.98;65.57;97811.06;4425549;32;20248;-85
2023/06/11 11:30:28;;;;;;;12.00;5.32;;;;;;;26.41;63.81;97809.81;4425772;32;20105;-85